KR-0405 weather

Busan Coast Guard Base Heliport
Busan (Yeoung-do), Busan Gwang'yeogsi, South Korea

Public forecast

Using degrees Celsius for public forecast. Weather courtesy of forecast.io.

Closest aviation weather report (METAR) to Busan Coast Guard Base Heliport

Closest report is Gimhae International Airport, 9.1 nm (16.8 km) NW. Retrieved 2020/01/19 06:00 UTC (56 minutes ago):

RKPK 190600Z 31006KT 9999 FEW040 09/M05 Q1016

Closest aviation forecast (TAF) to Busan Coast Guard Base Heliport

Closest forecast is Gimhae International Airport, 9.1 nm (16.8 km) NW. Retrieved 2020/01/19 06:00 UTC (56 minutes ago):

TAF RKPK 190500Z 1906/2012 30010KT 9999 SCT030 TNM03/1921Z TX08/2006Z BECMG 1908/1909 27006KT